createdAt,value
2022-11-08T00:01:37.630Z,100.00
2022-11-08T00:04:49.603Z,100.00
2022-11-08T00:08:16.107Z,100.00
2022-11-08T00:11:42.845Z,100.00
2022-11-08T00:14:54.743Z,100.00
2022-11-08T00:18:06.660Z,100.00
2022-11-08T00:21:18.739Z,100.00
2022-11-08T00:24:30.902Z,100.00
2022-11-08T00:27:42.794Z,100.00
2022-11-08T00:30:54.636Z,100.00
2022-11-08T00:34:06.600Z,100.00
2022-11-08T00:37:18.870Z,100.00
2022-11-08T00:40:30.586Z,100.00
2022-11-08T00:43:42.490Z,100.00
2022-11-08T00:46:54.686Z,100.00
2022-11-08T00:50:06.594Z,100.00
2022-11-08T00:53:18.764Z,100.00
2022-11-08T00:56:30.872Z,100.00
2022-11-08T00:59:42.659Z,100.00
2022-11-08T01:02:57.180Z,100.00
2022-11-08T01:06:13.138Z,100.00
2022-11-08T01:09:24.934Z,100.00
2022-11-08T01:12:36.867Z,100.00
2022-11-08T01:15:51.757Z,100.00
2022-11-08T01:19:04.737Z,100.00
2022-11-08T01:22:16.477Z,100.00
2022-11-08T01:25:28.205Z,100.00
2022-11-08T01:28:40.922Z,100.00
2022-11-08T01:31:52.621Z,100.00
2022-11-08T01:35:04.409Z,100.00
2022-11-08T01:38:18.547Z,100.00
2022-11-08T01:41:32.196Z,100.00
2022-11-08T01:45:04.896Z,100.00
2022-11-08T01:48:17.485Z,100.00
2022-11-08T01:51:34.519Z,100.00
2022-11-08T01:54:51.900Z,100.00
2022-11-08T01:58:08.742Z,100.00
2022-11-08T02:01:20.781Z,100.00
2022-11-08T02:04:33.149Z,100.00
2022-11-08T02:07:45.108Z,100.00
2022-11-08T02:10:58.806Z,100.00
2022-11-08T02:14:12.170Z,100.00
2022-11-08T02:17:26.406Z,100.00
2022-11-08T02:20:39.069Z,100.00
2022-11-08T02:23:55.341Z,100.00
2022-11-08T02:27:08.378Z,100.00
2022-11-08T02:30:20.178Z,100.00
2022-11-08T02:33:32.747Z,100.00
2022-11-08T02:36:44.492Z,100.00
2022-11-08T02:39:56.606Z,100.00
2022-11-08T02:43:08.309Z,100.00
2022-11-08T02:46:20.208Z,100.00
2022-11-08T02:49:31.932Z,100.00
2022-11-08T02:52:43.761Z,100.00
2022-11-08T02:55:56.054Z,100.00
2022-11-08T02:59:07.863Z,100.00
2022-11-08T03:02:19.854Z,100.00
2022-11-08T03:05:33.348Z,100.00
2022-11-08T03:08:46.472Z,100.00
2022-11-08T03:11:58.710Z,100.00
2022-11-08T03:15:14.179Z,100.00
2022-11-08T03:18:26.007Z,100.00
2022-11-08T03:21:37.815Z,100.00
2022-11-08T03:24:49.752Z,100.00
2022-11-08T03:28:01.552Z,100.00
2022-11-08T03:31:13.595Z,100.00
2022-11-08T03:34:25.399Z,100.00
2022-11-08T03:37:38.302Z,100.00
2022-11-08T03:40:51.131Z,100.00
2022-11-08T03:44:06.050Z,100.00
2022-11-08T03:47:17.867Z,100.00
2022-11-08T03:50:29.699Z,100.00
2022-11-08T03:53:41.601Z,100.00
2022-11-08T03:56:53.445Z,100.00
2022-11-08T04:00:05.332Z,100.00
2022-11-08T04:03:19.105Z,100.00
2022-11-08T04:06:31.119Z,100.00
2022-11-08T04:09:42.841Z,100.00
2022-11-08T04:13:09.194Z,100.00
2022-11-08T04:16:20.963Z,100.00
2022-11-08T04:19:52.786Z,100.00
2022-11-08T04:23:04.519Z,100.00
2022-11-08T04:26:16.507Z,100.00
2022-11-08T04:29:28.343Z,100.00
2022-11-08T04:32:40.046Z,100.00
2022-11-08T04:35:52.538Z,100.00
2022-11-08T04:39:04.250Z,100.00
2022-11-08T04:42:15.979Z,100.00
2022-11-08T04:45:27.918Z,100.00
2022-11-08T04:48:40.483Z,100.00
2022-11-08T04:51:52.199Z,100.00
2022-11-08T04:55:04.017Z,100.00
2022-11-08T04:58:16.093Z,100.00
2022-11-08T05:01:31.331Z,100.00
2022-11-08T05:04:43.169Z,100.00
2022-11-08T05:07:55.165Z,100.00
2022-11-08T05:11:12.965Z,100.00
2022-11-08T05:14:25.075Z,100.00
2022-11-08T05:17:36.780Z,100.00
2022-11-08T05:21:03.001Z,100.00
2022-11-08T05:24:18.661Z,100.00
2022-11-08T05:27:30.556Z,100.00
2022-11-08T05:30:42.321Z,100.00
2022-11-08T05:33:54.691Z,100.00
2022-11-08T05:37:06.439Z,100.00
2022-11-08T05:40:19.590Z,100.00
2022-11-08T05:43:31.849Z,100.00
2022-11-08T05:46:43.680Z,100.00
2022-11-08T05:49:55.411Z,100.00
2022-11-08T05:53:07.827Z,100.00
2022-11-08T05:56:20.577Z,100.00
2022-11-08T05:59:32.468Z,100.00
2022-11-08T06:02:44.455Z,100.00
2022-11-08T06:05:56.410Z,100.00
2022-11-08T06:09:08.708Z,100.00
2022-11-08T06:12:20.460Z,100.00
2022-11-08T06:15:32.435Z,100.00
2022-11-08T06:18:45.674Z,100.00
2022-11-08T06:21:57.576Z,100.00
2022-11-08T06:25:10.408Z,100.00
2022-11-08T06:28:22.213Z,100.00
2022-11-08T06:31:34.025Z,100.00
2022-11-08T06:34:46.016Z,100.00
2022-11-08T06:38:01.216Z,100.00
2022-11-08T06:41:11.822Z,100.00
2022-11-08T06:44:23.609Z,100.00
2022-11-08T06:47:35.409Z,100.00
2022-11-08T06:50:48.281Z,100.00
2022-11-08T06:54:00.158Z,100.00
2022-11-08T06:57:12.148Z,100.00
2022-11-08T07:00:26.077Z,100.00
2022-11-08T07:03:38.116Z,100.00
2022-11-08T07:06:50.059Z,100.00
2022-11-08T07:10:03.966Z,100.00
2022-11-08T07:13:19.643Z,100.00
2022-11-08T07:16:31.835Z,100.00
2022-11-08T07:19:43.777Z,100.00
2022-11-08T07:22:55.676Z,100.00
2022-11-08T07:26:13.086Z,100.00
2022-11-08T07:29:25.066Z,100.00
2022-11-08T07:32:36.803Z,100.00
2022-11-08T07:35:51.221Z,100.00
2022-11-08T07:39:06.565Z,100.00
2022-11-08T07:42:17.246Z,100.00
2022-11-08T07:45:31.559Z,100.00
2022-11-08T07:48:43.298Z,100.00
2022-11-08T07:51:55.084Z,100.00
2022-11-08T07:55:07.053Z,100.00
2022-11-08T07:58:19.312Z,100.00
2022-11-08T08:01:31.216Z,100.00
2022-11-08T08:04:43.211Z,100.00
2022-11-08T08:07:57.374Z,100.00
2022-11-08T08:11:09.764Z,96.13
2022-11-08T08:14:21.656Z,93.27
2022-11-08T08:17:33.568Z,89.59
2022-11-08T11:25:02.556Z,64.32
2022-11-08T14:53:50.894Z,84.46
2022-11-08T14:57:06.410Z,85.11
2022-11-08T15:03:25.417Z,86.60
2022-11-08T15:29:21.524Z,90.06
2022-11-08T15:32:40.075Z,90.85
2022-11-08T15:35:56.380Z,90.94
2022-11-08T15:39:22.204Z,91.54
2022-11-08T15:42:34.429Z,92.19
2022-11-08T15:45:57.844Z,93.10
2022-11-08T15:49:24.238Z,93.28
2022-11-08T15:52:36.164Z,94.33
2022-11-08T15:55:52.937Z,95.71
2022-11-08T15:59:04.812Z,96.46
2022-11-08T16:02:22.086Z,97.60
2022-11-08T16:05:36.058Z,98.21
2022-11-08T16:08:48.458Z,98.76
2022-11-08T16:12:01.067Z,98.97
2022-11-08T16:15:17.690Z,99.75
2022-11-08T16:18:31.831Z,100.00
2022-11-08T16:21:43.704Z,100.00
2022-11-08T16:24:55.649Z,100.00
2022-11-08T16:28:10.594Z,100.00
2022-11-08T16:31:23.441Z,100.00
2022-11-08T16:34:35.438Z,100.00
2022-11-08T16:37:48.331Z,100.00
2022-11-08T16:41:00.890Z,100.00
2022-11-08T16:44:13.825Z,100.00
2022-11-08T16:47:26.535Z,100.00
2022-11-08T16:50:40.419Z,100.00
2022-11-08T16:53:53.444Z,100.00
2022-11-08T16:57:32.952Z,100.00
2022-11-08T17:00:23.683Z,100.00
2022-11-08T17:03:35.598Z,100.00
2022-11-08T17:06:47.515Z,100.00
2022-11-08T17:09:59.552Z,100.00
2022-11-08T17:13:11.754Z,100.00
2022-11-08T17:16:24.167Z,100.00
2022-11-08T17:19:36.098Z,100.00
2022-11-08T17:22:49.294Z,100.00
2022-11-08T17:26:01.175Z,100.00
2022-11-08T17:29:13.145Z,100.00
2022-11-08T17:32:25.088Z,100.00
2022-11-08T17:35:42.477Z,100.00
2022-11-08T17:38:50.922Z,100.00
2022-11-08T17:42:02.822Z,100.00
2022-11-08T17:45:18.253Z,100.00
2022-11-08T17:48:30.387Z,100.00
2022-11-08T17:51:42.394Z,100.00
2022-11-08T17:54:54.562Z,100.00
2022-11-08T17:58:06.846Z,100.00
2022-11-08T18:01:19.341Z,100.00
2022-11-08T18:04:31.325Z,100.00
2022-11-08T18:07:43.217Z,100.00
2022-11-08T18:10:55.666Z,100.00
2022-11-08T18:14:07.977Z,100.00
2022-11-08T18:17:22.134Z,100.00
2022-11-08T18:20:34.836Z,100.00
2022-11-08T18:23:50.718Z,100.00
2022-11-08T18:27:02.961Z,100.00
2022-11-08T18:30:18.078Z,100.00
2022-11-08T18:33:30.026Z,100.00
2022-11-08T18:36:42.313Z,100.00
2022-11-08T18:39:54.179Z,100.00
2022-11-08T18:43:06.121Z,100.00
2022-11-08T18:46:24.062Z,100.00
2022-11-08T18:49:36.083Z,100.00
2022-11-08T18:52:49.227Z,100.00
2022-11-08T18:56:01.277Z,100.00
2022-11-08T18:59:13.481Z,100.00
2022-11-08T19:02:25.488Z,100.00
2022-11-08T19:05:38.170Z,100.00
2022-11-08T19:08:50.397Z,100.00
2022-11-08T19:12:05.916Z,100.00
2022-11-08T19:15:17.534Z,100.00
2022-11-08T19:18:29.818Z,100.00
2022-11-08T19:21:43.721Z,100.00
2022-11-08T19:24:55.707Z,100.00
2022-11-08T19:28:07.655Z,100.00
2022-11-08T19:31:21.196Z,100.00
2022-11-08T19:34:33.648Z,100.00
2022-11-08T19:37:45.642Z,100.00
2022-11-08T19:40:57.785Z,100.00
2022-11-08T19:44:14.664Z,100.00
2022-11-08T19:47:29.540Z,100.00
2022-11-08T19:50:43.502Z,100.00
2022-11-08T19:54:00.763Z,100.00
2022-11-08T19:57:14.475Z,100.00
2022-11-08T20:00:28.496Z,100.00
2022-11-08T20:03:42.390Z,100.00
2022-11-08T20:06:56.259Z,100.00
2022-11-08T20:10:12.251Z,100.00
2022-11-08T20:13:25.869Z,100.00
2022-11-08T20:16:43.041Z,100.00
2022-11-08T20:19:55.500Z,100.00
2022-11-08T20:23:07.612Z,100.00
2022-11-08T20:26:22.693Z,100.00
2022-11-08T20:29:35.590Z,100.00
2022-11-08T20:32:47.423Z,100.00
2022-11-08T20:35:59.301Z,100.00
2022-11-08T20:39:12.107Z,100.00
2022-11-08T20:42:24.147Z,100.00
2022-11-08T20:45:35.907Z,100.00
2022-11-08T20:48:52.005Z,100.00
2022-11-08T20:52:02.571Z,100.00
2022-11-08T20:55:15.702Z,100.00
2022-11-08T20:58:27.587Z,100.00
2022-11-08T21:01:39.835Z,100.00
2022-11-08T21:04:51.803Z,100.00
2022-11-08T21:08:56.510Z,100.00
2022-11-08T21:11:23.140Z,100.00
2022-11-08T21:14:35.254Z,100.00
2022-11-08T21:17:47.307Z,100.00
2022-11-08T21:21:09.427Z,100.00
2022-11-08T21:24:21.594Z,100.00
2022-11-08T21:27:35.631Z,100.00
2022-11-08T21:30:51.402Z,100.00
2022-11-08T21:34:03.517Z,100.00
2022-11-08T21:37:16.376Z,100.00
2022-11-08T21:40:28.430Z,100.00
2022-11-08T21:43:43.278Z,100.00
2022-11-08T21:46:55.403Z,100.00
2022-11-08T21:50:07.457Z,100.00
2022-11-08T21:53:19.854Z,100.00
2022-11-08T21:56:36.089Z,100.00
2022-11-08T21:59:48.096Z,100.00
2022-11-08T22:03:00.384Z,100.00
2022-11-08T22:06:13.034Z,100.00
2022-11-08T22:09:25.439Z,100.00
2022-11-08T22:12:37.789Z,100.00
2022-11-08T22:15:51.549Z,100.00
2022-11-08T22:19:05.200Z,100.00
2022-11-08T22:22:17.921Z,100.00
2022-11-08T22:25:29.970Z,100.00
2022-11-08T22:28:41.976Z,100.00
2022-11-08T22:31:54.948Z,100.00
2022-11-08T22:35:06.880Z,100.00
2022-11-08T22:38:20.067Z,100.00
2022-11-08T22:41:32.830Z,100.00
2022-11-08T22:44:44.937Z,100.00
2022-11-08T22:47:57.022Z,100.00
2022-11-08T22:51:09.433Z,100.00
2022-11-08T22:54:21.542Z,100.00
2022-11-08T22:57:33.903Z,100.00
2022-11-08T23:00:46.481Z,100.00
2022-11-08T23:03:58.567Z,100.00
2022-11-08T23:07:10.650Z,100.00
2022-11-08T23:10:23.091Z,100.00
2022-11-08T23:13:50.158Z,100.00
2022-11-08T23:17:02.153Z,100.00
2022-11-08T23:20:30.887Z,100.00
2022-11-08T23:23:57.635Z,100.00
2022-11-08T23:27:25.522Z,100.00
2022-11-08T23:30:51.896Z,100.00
2022-11-08T23:34:04.357Z,100.00
2022-11-08T23:37:16.289Z,100.00
2022-11-08T23:40:43.157Z,100.00
2022-11-08T23:44:10.087Z,100.00
2022-11-08T23:47:22.096Z,100.00
2022-11-08T23:50:34.250Z,100.00
2022-11-08T23:53:45.921Z,100.00
2022-11-08T23:56:58.733Z,100.00
